Akk, Virginia
Current Conditions -  °F | °C
As of 3:35 PM on Monday 22 Dec 2014 (Local Time) from KFYJ Reporting Station
Overcast Overcast  
Wind Chill:   Ceiling: 500
Heat Index:   Visibility: 2.5mi
Dew Point:   Wind: 6mph
Humidity: 91%   Direction: 10°N
Pressure: 30.09"   Gusts: NA
Location:  37.4383°N, 76.5764°W
Report Text: KFYJ 222035Z AUTO 01005KT 2 1/2SM OVC005 06/04 A3009 RMK AO2 T00570044
Loading
Personal Weather Stations






























Interactive Weather Map New forecast layout! Learn more

10-Day Weather Forecast

Advertisements
Track Severe Weather on mobile